Time;durP1;ratioP1;P1;durP2;ratioP2;P2;SDS_P1;SDS_P2;PMS_P1;PMS_P2;Temp;Humidity;BMP_temperature;BMP_pressure;BME280_temperature;BME280_humidity;BME280_pressure;Samples;Min_cycle;Max_cycle;Signal;HPM_P1;HPM_P2
2023/09/18 00:01:50;;;;;;;7.43;6.73;;;;;17.10;97012.00;;;;5025933;28;20259;-84
2023/09/18 00:04:39;;;;;;;7.57;6.77;;;;;16.90;97018.00;;;;5024938;28;20221;-84
2023/09/18 00:07:30;;;;;;;7.40;6.67;;;;;16.80;97016.00;;;;5025659;28;20721;-84
2023/09/18 00:10:19;;;;;;;9.67;7.97;;;;;16.80;97013.00;;;;5014777;28;20680;-85
2023/09/18 00:13:08;;;;;;;8.33;7.40;;;;;16.80;97003.00;;;;5027360;28;20232;-84
2023/09/18 00:15:59;;;;;;;12.17;8.43;;;;;16.90;97000.00;;;;5026947;28;20228;-83
2023/09/18 00:18:48;;;;;;;8.00;7.13;;;;;16.80;97006.00;;;;5025698;28;20237;-85
2023/09/18 00:21:38;;;;;;;10.07;7.97;;;;;16.70;97004.00;;;;5028999;28;20686;-83
2023/09/18 00:24:28;;;;;;;9.30;7.67;;;;;16.80;97003.00;;;;5023565;28;20703;-83
2023/09/18 00:27:17;;;;;;;11.10;8.67;;;;;16.90;97008.00;;;;5028387;28;20196;-86
2023/09/18 00:30:07;;;;;;;10.37;8.20;;;;;17.20;96988.00;;;;5031321;28;20208;-84
2023/09/18 00:32:56;;;;;;;11.30;8.03;;;;;17.20;96984.00;;;;5030912;28;20214;-84
2023/09/18 00:35:47;;;;;;;8.67;7.87;;;;;17.20;96989.00;;;;5030358;28;20225;-84
2023/09/18 00:38:36;;;;;;;13.93;7.73;;;;;17.30;96980.00;;;;5028274;28;20232;-84
2023/09/18 00:41:26;;;;;;;9.50;8.20;;;;;17.20;96973.00;;;;5028146;28;20202;-84
2023/09/18 00:44:15;;;;;;;8.77;7.87;;;;;17.10;96973.00;;;;5021252;28;20217;-84
2023/09/18 00:47:05;;;;;;;8.97;7.63;;;;;17.00;96968.00;;;;5031262;28;20208;-83
2023/09/18 00:49:54;;;;;;;8.90;8.00;;;;;17.00;96967.00;;;;5023258;28;20208;-84
2023/09/18 00:52:44;;;;;;;9.07;6.83;;;;;17.00;96976.00;;;;5024554;28;20201;-84
2023/09/18 00:55:33;;;;;;;7.73;7.00;;;;;16.60;96962.00;;;;5027975;28;20702;-83
2023/09/18 00:58:24;;;;;;;7.70;6.90;;;;;16.30;96970.00;;;;5028565;28;20720;-83
2023/09/18 01:01:16;;;;;;;7.77;6.97;;;;;16.40;96962.00;;;;5017891;28;20208;-83
2023/09/18 01:04:05;;;;;;;8.07;7.03;;;;;16.50;96962.00;;;;5029979;28;20229;-84
2023/09/18 01:06:56;;;;;;;8.87;7.97;;;;;16.40;96963.00;;;;5030322;28;20209;-83
2023/09/18 01:09:45;;;;;;;9.57;8.57;;;;;16.70;96961.00;;;;5025273;28;20651;-83
2023/09/18 01:12:41;;;;;;;10.13;8.17;;;;;16.60;96951.00;;;;5030523;28;20205;-85
2023/09/18 01:15:41;;;;;;;9.83;7.77;;;;;16.80;96950.00;;;;5023519;28;20268;-84
2023/09/18 01:18:30;;;;;;;9.40;8.10;;;;;17.00;96947.00;;;;5020300;28;20218;-84
2023/09/18 01:21:21;;;;;;;9.37;8.40;;;;;17.00;96942.00;;;;5023656;28;20206;-84
2023/09/18 01:24:11;;;;;;;8.27;7.40;;;;;16.80;96941.00;;;;5029999;28;20217;-84
2023/09/18 01:27:00;;;;;;;8.07;7.27;;;;;16.70;96938.00;;;;5026851;28;20218;-84
2023/09/18 01:29:50;;;;;;;8.33;7.40;;;;;16.50;96940.00;;;;5021620;28;20201;-84
2023/09/18 01:32:40;;;;;;;8.13;6.93;;;;;16.60;96942.00;;;;5029566;28;20217;-84
2023/09/18 01:35:29;;;;;;;10.73;7.67;;;;;16.70;96936.00;;;;5025108;28;20691;-84
2023/09/18 01:38:19;;;;;;;7.63;6.83;;;;;16.70;96930.00;;;;5020111;28;20675;-83
2023/09/18 01:41:09;;;;;;;10.27;6.77;;;;;16.50;96917.00;;;;5024395;28;20198;-83
2023/09/18 01:43:58;;;;;;;8.47;7.50;;;;;16.50;96924.00;;;;5024528;28;20255;-83
2023/09/18 01:46:49;;;;;;;10.50;7.40;;;;;16.20;96918.00;;;;5025524;28;20202;-85
2023/09/18 01:49:39;;;;;;;12.70;7.20;;;;;16.20;96916.00;;;;5032216;28;20197;-85
2023/09/18 01:52:28;;;;;;;8.97;7.57;;;;;16.40;96914.00;;;;5027723;28;20194;-84
2023/09/18 01:55:17;;;;;;;9.67;8.67;;;;;16.30;96909.00;;;;5032698;28;20221;-86
2023/09/18 01:58:09;;;;;;;11.07;7.60;;;;;15.90;96914.00;;;;5025688;28;20641;-83
2023/09/18 02:01:01;;;;;;;8.87;6.87;;;;;15.90;96911.00;;;;5030115;28;20205;-85
2023/09/18 02:03:50;;;;;;;7.53;6.83;;;;;15.80;96906.00;;;;5032302;28;20205;-86
2023/09/18 02:06:39;;;;;;;8.50;7.40;;;;;15.90;96907.00;;;;5032587;28;20204;-86
2023/09/18 02:09:28;;;;;;;9.57;8.23;;;;;16.30;96911.00;;;;5021160;28;20641;-86
2023/09/18 02:12:17;;;;;;;8.63;7.53;;;;;16.40;96898.00;;;;5026612;28;20202;-86
2023/09/18 02:15:10;;;;;;;14.80;9.23;;;;;16.40;96904.00;;;;5030979;28;20229;-87
2023/09/18 02:17:59;;;;;;;9.37;8.40;;;;;16.30;96896.00;;;;5028881;28;20225;-86
2023/09/18 02:20:49;;;;;;;10.87;8.77;;;;;16.60;96888.00;;;;5027634;28;20201;-86
2023/09/18 02:23:38;;;;;;;9.70;8.67;;;;;16.80;96881.00;;;;5030822;28;20685;-84
2023/09/18 02:26:27;;;;;;;9.97;7.47;;;;;16.80;96875.00;;;;5021321;28;20198;-86
2023/09/18 02:29:16;;;;;;;8.30;7.10;;;;;16.70;96894.00;;;;5028512;28;20205;-86
2023/09/18 02:32:07;;;;;;;11.47;7.70;;;;;16.70;96882.00;;;;5028295;28;20214;-86
2023/09/18 02:34:56;;;;;;;8.67;7.77;;;;;16.70;96883.00;;;;5027064;28;20225;-85
2023/09/18 02:37:45;;;;;;;8.43;6.73;;;;;16.40;96887.00;;;;5027795;28;20249;-86
2023/09/18 02:40:34;;;;;;;7.17;6.47;;;;;16.20;96875.00;;;;5023553;28;20209;-86
2023/09/18 02:43:23;;;;;;;7.90;6.90;;;;;15.80;96871.00;;;;5029980;28;20217;-86
2023/09/18 02:46:12;;;;;;;9.57;8.00;;;;;16.10;96863.00;;;;5021332;28;20208;-85
2023/09/18 02:49:02;;;;;;;8.40;7.60;;;;;16.30;96868.00;;;;5029963;28;20201;-86
2023/09/18 02:51:51;;;;;;;8.90;7.93;;;;;16.10;96859.00;;;;5027430;28;20613;-84
2023/09/18 02:54:40;;;;;;;13.10;7.83;;;;;15.70;96865.00;;;;5023858;28;20234;-84
2023/09/18 02:57:30;;;;;;;8.17;7.37;;;;;16.00;96859.00;;;;5023963;28;20217;-85
2023/09/18 03:00:19;;;;;;;11.53;7.43;;;;;16.10;96858.00;;;;5030454;28;20209;-85
2023/09/18 03:03:15;;;;;;;7.70;6.57;;;;;16.10;96849.00;;;;5027401;28;20557;-84
2023/09/18 03:06:06;;;;;;;11.67;7.17;;;;;16.10;96855.00;;;;5023500;28;20202;-85
2023/09/18 03:08:55;;;;;;;12.17;7.63;;;;;16.30;96850.00;;;;5026733;28;20208;-84
2023/09/18 03:11:44;;;;;;;7.93;7.23;;;;;16.40;96857.00;;;;5028600;28;20198;-84
2023/09/18 03:14:34;;;;;;;9.83;6.97;;;;;16.20;96854.00;;;;5029607;28;20236;-86
2023/09/18 03:17:23;;;;;;;7.70;6.93;;;;;15.80;96856.00;;;;5029041;28;20205;-84
2023/09/18 03:20:12;;;;;;;8.50;7.30;;;;;15.70;96851.00;;;;5023767;28;20247;-84
2023/09/18 03:23:04;;;;;;;10.27;7.27;;;;;16.10;96854.00;;;;5025131;28;20209;-84
2023/09/18 03:25:53;;;;;;;8.77;6.77;;;;;16.10;96843.00;;;;5023132;28;20224;-82
2023/09/18 03:28:42;;;;;;;8.83;7.70;;;;;16.10;96848.00;;;;5028412;28;20198;-83
2023/09/18 03:31:31;;;;;;;12.37;7.13;;;;;15.90;96843.00;;;;5022421;28;20213;-83
2023/09/18 03:34:20;;;;;;;7.53;6.83;;;;;15.80;96847.00;;;;5029124;28;20221;-85
2023/09/18 03:37:09;;;;;;;8.30;7.40;;;;;15.80;96842.00;;;;5024753;28;20212;-84
2023/09/18 03:39:59;;;;;;;11.97;8.37;;;;;16.00;96839.00;;;;5027153;28;20639;-83
2023/09/18 03:42:48;;;;;;;9.13;8.13;;;;;16.30;96842.00;;;;5020497;28;20202;-84
2023/09/18 03:45:37;;;;;;;7.23;6.53;;;;;15.90;96843.00;;;;5025086;28;20576;-86
2023/09/18 03:48:26;;;;;;;7.93;7.13;;;;;15.40;96838.00;;;;5029860;28;20197;-84
2023/09/18 03:51:15;;;;;;;10.63;6.93;;;;;15.60;96842.00;;;;5029521;28;20596;-84
2023/09/18 03:54:05;;;;;;;14.50;7.97;;;;;15.50;96829.00;;;;5032799;28;20586;-83
2023/09/18 03:56:55;;;;;;;8.73;7.33;;;;;15.70;96826.00;;;;5030931;28;20603;-83
2023/09/18 03:59:44;;;;;;;9.97;8.33;;;;;15.80;96816.00;;;;5032522;28;20225;-83
2023/09/18 04:02:34;;;;;;;10.97;8.40;;;;;15.80;96826.00;;;;5032895;28;20675;-83
2023/09/18 04:05:23;;;;;;;8.83;7.00;;;;;15.60;96817.00;;;;5021904;28;20653;-83
2023/09/18 04:08:13;;;;;;;10.03;7.40;;;;;15.60;96820.00;;;;5030116;28;20212;-83
2023/09/18 04:11:04;;;;;;;8.90;7.60;;;;;15.80;96808.00;;;;5032152;28;20209;-83
2023/09/18 04:13:54;;;;;;;10.07;7.53;;;;;15.70;96795.00;;;;5032088;28;20591;-86
2023/09/18 04:16:44;;;;;;;13.67;7.10;;;;;15.50;96797.00;;;;5024471;28;20205;-83
2023/09/18 04:19:33;;;;;;;9.20;7.53;;;;;15.00;96788.00;;;;5025643;28;20217;-84
2023/09/18 04:22:22;;;;;;;8.30;7.43;;;;;15.10;96790.00;;;;5026870;28;20201;-84
2023/09/18 04:25:11;;;;;;;10.53;7.67;;;;;15.40;96795.00;;;;5029019;28;20225;-83
2023/09/18 04:28:00;;;;;;;10.00;7.77;;;;;14.90;96789.00;;;;5022497;28;20216;-84
2023/09/18 04:30:50;;;;;;;8.33;7.30;;;;;14.60;96791.00;;;;5021298;28;20208;-83
2023/09/18 04:33:39;;;;;;;8.53;7.30;;;;;15.20;96781.00;;;;5022279;28;20202;-85
2023/09/18 04:36:29;;;;;;;10.30;8.13;;;;;15.50;96797.00;;;;5026570;28;20205;-84
2023/09/18 04:39:19;;;;;;;11.83;7.20;;;;;15.40;96803.00;;;;5026742;28;20494;-85
2023/09/18 04:42:08;;;;;;;11.87;8.43;;;;;15.20;96797.00;;;;5028968;28;20198;-84
2023/09/18 04:44:58;;;;;;;8.10;7.30;;;;;15.60;96793.00;;;;5023740;28;20228;-83
2023/09/18 04:47:48;;;;;;;8.03;7.00;;;;;15.70;96784.00;;;;5028389;28;20201;-84
2023/09/18 04:50:37;;;;;;;8.00;7.13;;;;;15.60;96777.00;;;;5026695;28;20674;-83
2023/09/18 04:53:26;;;;;;;11.20;8.07;;;;;15.70;96777.00;;;;5028367;28;20205;-84
2023/09/18 04:56:15;;;;;;;8.67;7.77;;;;;15.70;96768.00;;;;5022774;28;20209;-84
2023/09/18 04:59:04;;;;;;;11.63;8.20;;;;;15.70;96772.00;;;;5023225;28;20244;-85
2023/09/18 05:01:53;;;;;;;10.57;8.20;;;;;15.60;96776.00;;;;5026678;28;20651;-85
2023/09/18 05:04:44;;;;;;;9.63;8.63;;;;;15.60;96779.00;;;;5031596;28;20242;-84
2023/09/18 05:07:33;;;;;;;13.90;7.33;;;;;15.00;96777.00;;;;5026931;28;20682;-84
2023/09/18 05:10:22;;;;;;;7.20;6.50;;;;;15.00;96773.00;;;;5023389;28;20190;-85
2023/09/18 05:13:12;;;;;;;7.40;6.63;;;;;15.30;96776.00;;;;5029428;28;20212;-84
2023/09/18 05:16:01;;;;;;;7.47;6.47;;;;;15.20;96780.00;;;;5019440;28;20209;-84
2023/09/18 05:18:50;;;;;;;8.57;7.50;;;;;15.20;96791.00;;;;5028688;28;20243;-84
2023/09/18 05:21:41;;;;;;;11.57;8.57;;;;;15.80;96797.00;;;;5028144;28;20197;-84
2023/09/18 05:24:30;;;;;;;9.57;8.40;;;;;15.90;96793.00;;;;5030176;28;20625;-84
2023/09/18 05:27:19;;;;;;;8.90;8.03;;;;;16.00;96784.00;;;;5025445;28;20209;-84
2023/09/18 05:30:10;;;;;;;11.63;9.57;;;;;16.20;96790.00;;;;5027025;28;20201;-83
2023/09/18 05:33:04;;;;;;;13.03;8.07;;;;;16.40;96803.00;;;;5026759;28;20217;-84
2023/09/18 05:35:53;;;;;;;11.43;8.47;;;;;16.40;96787.00;;;;5025915;28;20275;-84
2023/09/18 05:38:44;;;;;;;9.27;8.30;;;;;16.40;96773.00;;;;5024238;28;20675;-84
2023/09/18 05:41:33;;;;;;;9.20;8.27;;;;;16.40;96776.00;;;;5023277;28;20614;-84
2023/09/18 05:44:22;;;;;;;9.80;8.17;;;;;16.20;96781.00;;;;5022691;28;20248;-85
2023/09/18 05:47:11;;;;;;;8.20;7.37;;;;;16.30;96778.00;;;;5020746;28;20215;-84
2023/09/18 05:50:00;;;;;;;8.33;7.53;;;;;15.90;96768.00;;;;5024908;28;20197;-84
2023/09/18 05:52:49;;;;;;;11.60;9.47;;;;;16.20;96769.00;;;;5024958;28;20220;-84
2023/09/18 05:55:40;;;;;;;21.03;12.97;;;;;16.00;96774.00;;;;5026662;28;20520;-84
2023/09/18 05:58:31;;;;;;;27.90;15.77;;;;;16.10;96780.00;;;;5025713;28;20234;-82
2023/09/18 06:01:20;;;;;;;19.63;13.30;;;;;16.10;96766.00;;;;5023579;28;20619;-83
2023/09/18 06:04:10;;;;;;;17.60;13.20;;;;;16.20;96779.00;;;;5025710;28;20221;-83
2023/09/18 06:06:59;;;;;;;8.63;7.73;;;;;16.30;96766.00;;;;5021405;28;20212;-84
2023/09/18 06:09:48;;;;;;;10.77;8.87;;;;;16.80;96765.00;;;;5024587;28;21257;-84
2023/09/18 06:12:40;;;;;;;18.43;11.33;;;;;16.80;96765.00;;;;5020869;28;20208;-83
2023/09/18 06:15:29;;;;;;;15.50;9.87;;;;;17.20;96753.00;;;;5022207;28;20244;-83
2023/09/18 06:18:19;;;;;;;10.93;8.93;;;;;17.30;96753.00;;;;5021155;28;20202;-86
2023/09/18 06:21:08;;;;;;;15.17;9.47;;;;;17.30;96760.00;;;;5022976;28;20240;-83
2023/09/18 06:23:57;;;;;;;17.00;10.87;;;;;17.50;96759.00;;;;5021232;28;20236;-84
2023/09/18 06:26:46;;;;;;;22.23;9.70;;;;;17.60;96757.00;;;;5022620;28;20578;-84
2023/09/18 06:29:37;;;;;;;9.97;8.87;;;;;17.70;96750.00;;;;5016958;28;20494;-84
2023/09/18 06:32:26;;;;;;;10.20;7.73;;;;;17.60;96762.00;;;;5027087;28;20221;-84
2023/09/18 06:35:15;;;;;;;12.00;8.53;;;;;17.50;96759.00;;;;5022847;28;20221;-85
2023/09/18 06:38:06;;;;;;;9.73;8.60;;;;;17.90;96750.00;;;;5023173;28;20206;-84
2023/09/18 06:40:55;;;;;;;9.97;8.43;;;;;18.20;96756.00;;;;5022962;28;20221;-84
2023/09/18 06:43:44;;;;;;;15.67;8.63;;;;;18.20;96765.00;;;;5017704;28;20260;-85
2023/09/18 06:46:34;;;;;;;9.43;8.43;;;;;18.40;96751.00;;;;5027948;28;20216;-84
2023/09/18 06:49:24;;;;;;;9.53;8.53;;;;;18.70;96748.00;;;;5028015;28;20208;-84
2023/09/18 06:52:13;;;;;;;10.63;9.47;;;;;19.00;96746.00;;;;5022544;28;20201;-84
2023/09/18 06:55:02;;;;;;;10.43;8.83;;;;;19.50;96755.00;;;;5026066;28;20233;-84
2023/09/18 06:57:52;;;;;;;11.83;8.90;;;;;19.90;96754.00;;;;5019646;28;20667;-83
2023/09/18 07:00:41;;;;;;;10.33;8.67;;;;;20.30;96744.00;;;;5027362;28;20232;-84
2023/09/18 07:03:32;;;;;;;15.67;8.63;;;;;20.60;96731.00;;;;5025457;28;20198;-86
2023/09/18 07:06:21;;;;;;;9.40;8.07;;;;;20.60;96725.00;;;;5023560;28;20266;-84
2023/09/18 07:09:12;;;;;;;9.37;8.47;;;;;20.80;96735.00;;;;5022937;28;20608;-84
2023/09/18 07:12:01;;;;;;;11.73;7.63;;;;;20.80;96732.00;;;;5024010;28;20670;-83
2023/09/18 07:14:50;;;;;;;13.77;9.10;;;;;20.90;96727.00;;;;5023458;28;20228;-85
2023/09/18 07:17:39;;;;;;;17.87;8.53;;;;;20.90;96732.00;;;;5024226;28;20213;-85
2023/09/18 07:20:30;;;;;;;12.47;8.57;;;;;21.00;96725.00;;;;5024435;28;20228;-86
2023/09/18 07:23:19;;;;;;;10.07;8.13;;;;;21.20;96727.00;;;;5026150;28;20219;-86
2023/09/18 07:26:08;;;;;;;9.80;7.70;;;;;21.30;96729.00;;;;5029194;28;20208;-85
2023/09/18 07:28:57;;;;;;;8.77;7.70;;;;;21.40;96734.00;;;;5024812;28;20208;-84
2023/09/18 07:31:47;;;;;;;11.27;7.37;;;;;21.70;96744.00;;;;5031864;28;20213;-84
2023/09/18 07:34:37;;;;;;;7.97;6.93;;;;;21.70;96740.00;;;;5033485;28;20575;-84
2023/09/18 07:37:27;;;;;;;10.60;6.97;;;;;21.90;96730.00;;;;5026043;28;20206;-86
2023/09/18 07:40:17;;;;;;;8.30;6.40;;;;;21.80;96740.00;;;;5029320;28;20202;-84
2023/09/18 07:43:06;;;;;;;8.33;7.13;;;;;22.00;96729.00;;;;5028783;28;20216;-84
2023/09/18 07:45:56;;;;;;;7.77;6.20;;;;;22.20;96744.00;;;;5025769;28;20237;-85
2023/09/18 07:48:45;;;;;;;9.40;6.50;;;;;22.20;96746.00;;;;5025615;28;20205;-84
2023/09/18 07:51:34;;;;;;;8.97;6.80;;;;;22.20;96735.00;;;;5029878;28;20204;-84
2023/09/18 07:54:24;;;;;;;8.67;6.63;;;;;22.30;96751.00;;;;5029802;28;20251;-83
2023/09/18 07:57:15;;;;;;;7.53;6.37;;;;;22.20;96742.00;;;;5024340;28;20209;-83
2023/09/18 08:00:07;;;;;;;7.43;6.73;;;;;22.60;96741.00;;;;5029776;28;20197;-83
2023/09/18 08:03:00;;;;;;;9.30;6.53;;;;;22.80;96742.00;;;;5029669;28;20206;-83
2023/09/18 08:05:53;;;;;;;8.27;6.80;;;;;22.90;96730.00;;;;5030457;28;20225;-83
2023/09/18 08:08:42;;;;;;;8.47;7.30;;;;;23.10;96734.00;;;;5026071;28;20670;-84
2023/09/18 08:11:33;;;;;;;11.40;6.27;;;;;23.30;96735.00;;;;5026968;28;20205;-84
2023/09/18 08:14:22;;;;;;;10.20;7.50;;;;;23.70;96742.00;;;;5027307;28;20312;-83
2023/09/18 08:17:11;;;;;;;12.93;6.60;;;;;24.10;96742.00;;;;5026907;28;20675;-84
2023/09/18 08:20:00;;;;;;;7.70;5.80;;;;;24.30;96741.00;;;;5029753;28;20215;-83
2023/09/18 08:22:50;;;;;;;7.47;6.67;;;;;24.40;96745.00;;;;5036854;22;20240;-69
2023/09/18 08:25:39;;;;;;;6.57;5.83;;;;;24.30;96742.00;;;;5027214;28;20221;-69
2023/09/18 08:28:30;;;;;;;8.07;6.70;;;;;24.10;96735.00;;;;5018006;28;20201;-69
2023/09/18 08:31:19;;;;;;;14.17;6.63;;;;;24.20;96739.00;;;;5022921;28;20198;-69
2023/09/18 08:34:08;;;;;;;7.63;6.03;;;;;24.10;96732.00;;;;5017625;28;20693;-68
2023/09/18 08:36:57;;;;;;;8.63;5.60;;;;;24.30;96727.00;;;;5015349;28;20230;-69
2023/09/18 08:39:46;;;;;;;8.03;6.37;;;;;24.60;96725.00;;;;5022790;28;20202;-67
2023/09/18 08:42:36;;;;;;;6.50;5.80;;;;;24.80;96726.00;;;;5019135;28;20222;-68
2023/09/18 08:45:36;;;;;;;6.93;5.90;;;;;25.00;96723.00;;;;5020341;28;20218;-69
2023/09/18 08:48:25;;;;;;;6.87;6.17;;;;;25.30;96720.00;;;;5015677;28;20209;-69
2023/09/18 08:51:15;;;;;;;6.93;6.33;;;;;25.50;96711.00;;;;5018462;28;20205;-69
2023/09/18 08:54:06;;;;;;;11.53;6.90;;;;;25.60;96704.00;;;;5016812;28;20201;-68
2023/09/18 08:56:55;;;;;;;6.40;5.70;;;;;25.70;96702.00;;;;5012833;28;20230;-69
2023/09/18 08:59:45;;;;;;;8.50;6.20;;;;;25.60;96686.00;;;;5016000;28;20727;-69
2023/09/18 09:02:36;;;;;;;7.10;6.47;;;;;25.80;96684.00;;;;5014782;28;20225;-68
2023/09/18 09:05:25;;;;;;;6.57;6.00;;;;;26.00;96680.00;;;;5016283;28;20245;-69
2023/09/18 09:08:15;;;;;;;6.50;5.90;;;;;26.00;96685.00;;;;5018376;28;20205;-68
2023/09/18 09:11:04;;;;;;;6.70;6.10;;;;;26.20;96677.00;;;;5017172;28;20201;-70
2023/09/18 09:14:11;;;;;;;8.10;5.70;;;;;26.50;96677.00;;;;5018500;28;20198;-69
2023/09/18 09:17:00;;;;;;;6.63;5.33;;;;;26.50;96665.00;;;;5017567;28;20771;-70
2023/09/18 09:19:51;;;;;;;6.73;5.90;;;;;26.30;96651.00;;;;5015684;28;20221;-69
2023/09/18 09:22:40;;;;;;;6.57;5.97;;;;;26.80;96658.00;;;;5019688;28;20237;-69
2023/09/18 09:25:32;;;;;;;8.50;6.67;;;;;26.80;96642.00;;;;5017625;28;20230;-68
2023/09/18 09:28:31;;;;;;;6.77;6.13;;;;;27.00;96641.00;;;;5015162;28;20564;-69
2023/09/18 09:31:27;;;;;;;6.97;6.37;;;;;26.30;96637.00;;;;5016765;28;20581;-69
2023/09/18 09:34:26;;;;;;;7.27;6.33;;;;;27.30;96637.00;;;;5014450;28;20219;-70
2023/09/18 09:37:17;;;;;;;10.80;6.37;;;;;27.80;96635.00;;;;5016728;28;20224;-69
2023/09/18 09:40:09;;;;;;;7.43;6.30;;;;;27.40;96642.00;;;;5014631;28;20691;-69
2023/09/18 09:43:02;;;;;;;6.80;6.10;;;;;26.30;96631.00;;;;5015875;28;20244;-69
2023/09/18 09:45:51;;;;;;;8.70;6.40;;;;;27.30;96634.00;;;;5016660;28;20230;-68
2023/09/18 09:48:41;;;;;;;7.63;6.20;;;;;28.10;96624.00;;;;5014671;28;20217;-68
2023/09/18 09:51:30;;;;;;;8.53;6.57;;;;;28.30;96623.00;;;;5021810;28;20209;-69
2023/09/18 09:54:36;;;;;;;7.80;6.63;;;;;28.80;96616.00;;;;5018748;28;20588;-69
2023/09/18 09:57:25;;;;;;;7.63;6.53;;;;;28.80;96614.00;;;;5013085;28;20221;-69
2023/09/18 10:00:26;;;;;;;7.63;6.37;;;;;29.00;96610.00;;;;5021234;28;20206;-69
2023/09/18 10:03:17;;;;;;;6.90;5.53;;;;;29.10;96610.00;;;;5013329;28;20225;-68
2023/09/18 10:06:06;;;;;;;7.57;6.97;;;;;29.20;96609.00;;;;5014598;28;20228;-69
2023/09/18 10:08:56;;;;;;;6.77;6.13;;;;;28.50;96594.00;;;;5014625;28;20849;-68
2023/09/18 10:11:50;;;;;;;9.90;6.77;;;;;29.40;96598.00;;;;5021303;28;20281;-69
2023/09/18 10:14:42;;;;;;;6.33;5.70;;;;;29.50;96594.00;;;;5018267;28;20214;-69
2023/09/18 10:17:35;;;;;;;7.17;5.90;;;;;29.20;96591.00;;;;5017002;28;20207;-69
2023/09/18 10:20:26;;;;;;;7.23;6.53;;;;;29.80;96597.00;;;;5016359;28;20667;-68
2023/09/18 10:23:27;;;;;;;7.10;6.30;;;;;30.10;96594.00;;;;5020419;28;20214;-69
2023/09/18 10:26:24;;;;;;;7.27;5.87;;;;;30.30;96590.00;;;;5016066;28;20224;-69
2023/09/18 10:29:18;;;;;;;9.23;5.50;;;;;30.60;96588.00;;;;5014474;28;20199;-69
2023/09/18 10:32:08;;;;;;;9.70;5.70;;;;;30.60;96588.00;;;;5012553;28;20289;-69
2023/09/18 10:34:57;;;;;;;6.90;6.20;;;;;30.60;96580.00;;;;5016389;28;20225;-68
2023/09/18 10:37:47;;;;;;;6.07;5.53;;;;;29.20;96573.00;;;;5020820;28;20204;-68
2023/09/18 10:40:37;;;;;;;6.13;5.53;;;;;28.80;96558.00;;;;5022278;28;20199;-68
2023/09/18 10:43:26;;;;;;;7.10;5.63;;;;;28.50;96560.00;;;;5014923;28;20603;-68
2023/09/18 10:46:16;;;;;;;7.37;5.80;;;;;30.00;96560.00;;;;5017435;28;20234;-69
2023/09/18 10:49:06;;;;;;;7.93;6.23;;;;;30.60;96560.00;;;;5022241;28;20590;-69
2023/09/18 10:51:56;;;;;;;8.70;7.30;;;;;30.70;96551.00;;;;5013950;28;20203;-68
2023/09/18 10:54:46;;;;;;;6.73;4.93;;;;;31.10;96575.00;;;;5018478;28;20216;-69
2023/09/18 10:57:36;;;;;;;9.02;5.60;;;;;30.80;96578.00;;;;5014206;28;20204;-70
2023/09/18 11:00:27;;;;;;;5.88;5.28;;;;;30.10;96564.00;;;;5016207;28;20213;-69
2023/09/18 11:03:19;;;;;;;5.43;4.93;;;;;29.70;96543.00;;;;5018305;28;20217;-68
2023/09/18 11:06:10;;;;;;;5.68;5.18;;;;;30.60;96569.00;;;;5015231;28;20229;-69
2023/09/18 11:09:04;;;;;;;10.48;7.35;;;;;31.20;96541.00;;;;5014850;28;20586;-69
2023/09/18 11:11:56;;;;;;;6.05;5.32;;;;;31.50;96569.00;;;;5011036;28;20677;-70
2023/09/18 11:14:49;;;;;;;7.47;5.72;;;;;31.20;96568.00;;;;5019889;28;20686;-69
2023/09/18 11:17:39;;;;;;;6.75;5.53;;;;;31.20;96581.00;;;;5022467;28;20215;-68
2023/09/18 11:20:30;;;;;;;8.85;6.07;;;;;31.80;96535.00;;;;5015996;28;20203;-69
2023/09/18 11:23:19;;;;;;;6.28;5.47;;;;;32.00;96535.00;;;;5013806;28;20231;-68
2023/09/18 11:26:09;;;;;;;6.50;5.90;;;;;31.30;96524.00;;;;5021415;28;20953;-68
2023/09/18 11:29:04;;;;;;;9.15;6.20;;;;;31.80;96530.00;;;;5019564;28;20205;-70
2023/09/18 11:31:55;;;;;;;7.93;6.05;;;;;33.00;96567.00;;;;5019885;28;20201;-70
2023/09/18 11:34:44;;;;;;;6.90;5.88;;;;;31.60;96572.00;;;;5020448;28;20263;-70
2023/09/18 11:37:34;;;;;;;6.18;5.30;;;;;30.90;96572.00;;;;5016140;28;20209;-68
2023/09/18 11:40:33;;;;;;;6.47;5.75;;;;;30.50;96560.00;;;;5017469;28;20208;-70
2023/09/18 11:43:29;;;;;;;6.40;5.57;;;;;30.30;96556.00;;;;5016874;28;20227;-69
2023/09/18 11:46:21;;;;;;;7.28;5.97;;;;;29.90;96545.00;;;;5013195;28;20221;-70
2023/09/18 11:49:10;;;;;;;7.05;5.65;;;;;29.80;96545.00;;;;5015099;28;20730;-69
2023/09/18 11:52:00;;;;;;;9.67;6.40;;;;;30.30;96531.00;;;;5012045;28;20213;-69
2023/09/18 11:54:51;;;;;;;7.13;6.38;;;;;31.40;96496.00;;;;5015409;28;20690;-69
2023/09/18 11:57:42;;;;;;;7.05;6.30;;;;;32.00;96528.00;;;;5018410;28;20220;-70
2023/09/18 12:00:32;;;;;;;8.23;6.30;;;;;31.40;96533.00;;;;5019665;28;20195;-69
2023/09/18 12:03:26;;;;;;;6.38;5.38;;;;;31.10;96523.00;;;;5015719;28;20235;-69
2023/09/18 12:06:15;;;;;;;7.90;6.43;;;;;31.40;96525.00;;;;5011995;28;20278;-69
2023/09/18 12:09:07;;;;;;;6.75;5.78;;;;;30.30;96539.00;;;;5012344;28;20203;-69
2023/09/18 12:11:58;;;;;;;6.07;5.25;;;;;30.20;96530.00;;;;5014029;28;20212;-69
2023/09/18 12:14:47;;;;;;;6.35;5.75;;;;;29.10;96521.00;;;;5020007;28;20654;-69
2023/09/18 12:17:36;;;;;;;15.47;7.27;;;;;29.30;96517.00;;;;5017114;28;20206;-68
2023/09/18 12:20:25;;;;;;;6.83;6.13;;;;;29.20;96521.00;;;;5018950;28;20239;-69
2023/09/18 12:23:14;;;;;;;6.63;5.77;;;;;29.00;96518.00;;;;5019603;28;20229;-69
2023/09/18 12:26:04;;;;;;;5.87;5.37;;;;;28.80;96518.00;;;;5015931;28;20233;-69
2023/09/18 12:28:54;;;;;;;9.77;6.80;;;;;28.60;96520.00;;;;5022784;28;20220;-69
2023/09/18 12:31:45;;;;;;;11.07;5.90;;;;;28.80;96519.00;;;;5018092;28;20204;-69
2023/09/18 12:34:34;;;;;;;7.93;6.23;;;;;28.20;96511.00;;;;5023693;28;20199;-68
2023/09/18 12:37:23;;;;;;;7.33;6.00;;;;;28.20;96520.00;;;;5021226;28;20602;-69
2023/09/18 12:40:23;;;;;;;7.77;5.80;;;;;28.00;96518.00;;;;5017048;28;20224;-69
2023/09/18 12:43:12;;;;;;;6.40;5.80;;;;;27.90;96512.00;;;;5016688;28;20230;-69
2023/09/18 12:46:04;;;;;;;7.53;6.80;;;;;27.90;96521.00;;;;5015878;28;20225;-69
2023/09/18 12:48:53;;;;;;;8.73;6.97;;;;;27.90;96522.00;;;;5017330;28;20219;-69
2023/09/18 12:51:42;;;;;;;7.50;6.73;;;;;27.70;96517.00;;;;5015087;28;20599;-69
2023/09/18 12:54:41;;;;;;;7.63;5.93;;;;;27.60;96514.00;;;;5015309;28;20215;-69
2023/09/18 12:57:30;;;;;;;10.20;7.47;;;;;27.30;96495.00;;;;5019550;28;20204;-68
2023/09/18 13:00:22;;;;;;;8.50;7.60;;;;;27.70;96490.00;;;;5018403;28;20216;-69
2023/09/18 13:03:14;;;;;;;9.77;6.50;;;;;28.60;96488.00;;;;5018041;28;20235;-69
2023/09/18 13:06:11;;;;;;;7.60;6.90;;;;;28.40;96476.00;;;;5018684;28;20704;-70
2023/09/18 13:09:17;;;;;;;7.90;7.17;;;;;27.60;96488.00;;;;5019607;28;20578;-70
2023/09/18 13:12:07;;;;;;;9.33;7.40;;;;;28.30;96474.00;;;;5013425;28;20240;-69
2023/09/18 13:15:03;;;;;;;10.43;7.67;;;;;28.00;96462.00;;;;5014435;28;20232;-69
2023/09/18 13:17:52;;;;;;;13.63;8.93;;;;;29.20;96442.00;;;;5016014;28;20708;-70
2023/09/18 13:20:42;;;;;;;9.20;6.70;;;;;29.80;96459.00;;;;5014269;28;20203;-69
2023/09/18 13:23:32;;;;;;;8.67;6.03;;;;;28.00;96459.00;;;;5021213;28;20227;-70
2023/09/18 13:26:21;;;;;;;14.03;8.10;;;;;27.60;96449.00;;;;5017132;28;20224;-70
2023/09/18 13:29:10;;;;;;;7.33;6.70;;;;;29.10;96417.00;;;;5016402;28;20212;-70
2023/09/18 13:32:00;;;;;;;11.77;5.80;;;;;31.20;96415.00;;;;5015322;28;20206;-69
2023/09/18 13:34:49;;;;;;;8.13;6.63;;;;;31.80;96444.00;;;;5015027;28;20212;-70
2023/09/18 13:37:40;;;;;;;7.10;6.40;;;;;31.60;96440.00;;;;5014250;28;20207;-70
2023/09/18 13:40:30;;;;;;;7.25;5.65;;;;;31.10;96453.00;;;;5019653;28;20211;-70
2023/09/18 13:43:21;;;;;;;6.85;5.95;;;;;30.60;96443.00;;;;5019622;28;20234;-70
2023/09/18 13:46:10;;;;;;;6.20;5.55;;;;;29.10;96415.00;;;;5018615;28;20758;-70
2023/09/18 13:48:59;;;;;;;6.47;5.85;;;;;29.50;96418.00;;;;5018324;28;20588;-69
2023/09/18 13:51:50;;;;;;;7.55;6.38;;;;;28.80;96437.00;;;;5014703;28;20613;-70
2023/09/18 13:54:41;;;;;;;6.87;5.97;;;;;29.20;96431.00;;;;5014061;28;20201;-70
2023/09/18 13:57:30;;;;;;;6.40;5.80;;;;;28.70;96428.00;;;;5013828;28;20204;-68
2023/09/18 14:00:20;;;;;;;6.87;6.27;;;;;28.70;96418.00;;;;5018394;28;20215;-69
2023/09/18 14:03:10;;;;;;;8.63;6.23;;;;;28.10;96418.00;;;;5015713;28;20205;-69
2023/09/18 14:05:59;;;;;;;6.97;6.30;;;;;28.10;96412.00;;;;5013674;28;20250;-68
2023/09/18 14:08:48;;;;;;;6.93;6.33;;;;;28.20;96392.00;;;;5014127;28;20223;-71
2023/09/18 14:11:39;;;;;;;7.77;6.30;;;;;28.10;96388.00;;;;5014452;28;20209;-68